Flugplatz Heide-Büsum

Für EDXB sind keine METAR/TAF Berichte vorhanden.
Es werden die Flugwettermeldungen vom Flugplatz Hohn Airport in 44 km Entfernung angezeigt.

Bericht für ETNH

vom 28.09. um 22:20 UTC

Wind 2 kt aus 120°

Sichtweite 9000 m

Temperatur 10.0°C

Taupunkt 9.0°C

Luftfeuchtigkeit 93%

Luftdruck 1020 hPa

ETNH 282220Z AUTO 12002KT 9000 // ////// 10/09 Q1020 ///

Prognose für ETNH

vom 28.09. um 22:03 UTC

Am 28.09. zwischen 23:00 UTC und 11:00 UTC

Wind 5 kt aus 120°

Sichtweite 10 km oder mehr

keine signifikanten Wettererscheinungen

aufgebrochene Bewölkung in 15000 ft

TAF ETNH 282203Z 2823/2911 12005KT 9999 NSW BKN150 BY ETGL
Impressum